sensor_id;sensor_type;location;lat;lon;timestamp;P1;durP1;ratioP1;P2;durP2;ratioP2
846;SDS011;410;48.954;9.474;2022-09-24T00:00:30;12.90;;;10.17;;
846;SDS011;410;48.954;9.474;2022-09-24T00:02:33;11.77;;;10.57;;
846;SDS011;410;48.954;9.474;2022-09-24T00:04:36;12.10;;;10.80;;
846;SDS011;410;48.954;9.474;2022-09-24T00:06:40;13.83;;;11.53;;
846;SDS011;410;48.954;9.474;2022-09-24T00:08:45;13.20;;;11.87;;
846;SDS011;410;48.954;9.474;2022-09-24T00:10:50;16.37;;;14.67;;
846;SDS011;410;48.954;9.474;2022-09-24T00:12:53;19.87;;;16.07;;
846;SDS011;410;48.954;9.474;2022-09-24T00:14:56;24.27;;;21.63;;
846;SDS011;410;48.954;9.474;2022-09-24T00:16:59;23.50;;;21.00;;
846;SDS011;410;48.954;9.474;2022-09-24T00:19:02;26.63;;;23.57;;
846;SDS011;410;48.954;9.474;2022-09-24T00:21:15;24.73;;;22.03;;
846;SDS011;410;48.954;9.474;2022-09-24T00:23:20;29.00;;;25.20;;
846;SDS011;410;48.954;9.474;2022-09-24T00:25:23;29.47;;;26.37;;
846;SDS011;410;48.954;9.474;2022-09-24T00:27:45;31.83;;;28.53;;
846;SDS011;410;48.954;9.474;2022-09-24T00:29:48;30.93;;;27.63;;
846;SDS011;410;48.954;9.474;2022-09-24T00:31:51;33.37;;;29.27;;
846;SDS011;410;48.954;9.474;2022-09-24T00:33:54;30.93;;;27.17;;
846;SDS011;410;48.954;9.474;2022-09-24T00:35:59;28.40;;;25.33;;
846;SDS011;410;48.954;9.474;2022-09-24T00:38:03;28.20;;;25.30;;
846;SDS011;410;48.954;9.474;2022-09-24T00:40:07;31.57;;;25.40;;
846;SDS011;410;48.954;9.474;2022-09-24T00:42:11;28.40;;;25.40;;
846;SDS011;410;48.954;9.474;2022-09-24T00:46:55;17.63;;;15.83;;
846;SDS011;410;48.954;9.474;2022-09-24T00:48:59;23.00;;;20.53;;
846;SDS011;410;48.954;9.474;2022-09-24T00:51:04;21.37;;;18.67;;
846;SDS011;410;48.954;9.474;2022-09-24T00:53:08;20.57;;;18.37;;
846;SDS011;410;48.954;9.474;2022-09-24T00:55:13;18.70;;;16.77;;
846;SDS011;410;48.954;9.474;2022-09-24T00:57:16;19.40;;;15.50;;
846;SDS011;410;48.954;9.474;2022-09-24T00:59:20;16.83;;;15.13;;
846;SDS011;410;48.954;9.474;2022-09-24T01:01:25;17.13;;;15.33;;
846;SDS011;410;48.954;9.474;2022-09-24T01:03:29;16.30;;;13.73;;
846;SDS011;410;48.954;9.474;2022-09-24T01:05:34;14.20;;;12.80;;
846;SDS011;410;48.954;9.474;2022-09-24T01:07:37;14.60;;;13.17;;
846;SDS011;410;48.954;9.474;2022-09-24T01:09:40;16.50;;;14.80;;
846;SDS011;410;48.954;9.474;2022-09-24T01:11:44;15.17;;;13.57;;
846;SDS011;410;48.954;9.474;2022-09-24T01:16:17;13.57;;;12.20;;
846;SDS011;410;48.954;9.474;2022-09-24T01:18:27;13.03;;;11.77;;
846;SDS011;410;48.954;9.474;2022-09-24T01:20:50;12.40;;;11.10;;
846;SDS011;410;48.954;9.474;2022-09-24T01:23:02;12.07;;;10.87;;
846;SDS011;410;48.954;9.474;2022-09-24T01:25:14;11.33;;;10.10;;
846;SDS011;410;48.954;9.474;2022-09-24T01:27:24;11.97;;;10.63;;
846;SDS011;410;48.954;9.474;2022-09-24T01:29:43;10.67;;;9.67;;
846;SDS011;410;48.954;9.474;2022-09-24T01:31:51;10.50;;;9.50;;
846;SDS011;410;48.954;9.474;2022-09-24T01:33:56;11.20;;;10.00;;
846;SDS011;410;48.954;9.474;2022-09-24T01:36:01;11.03;;;9.93;;
846;SDS011;410;48.954;9.474;2022-09-24T01:38:10;10.83;;;9.83;;
846;SDS011;410;48.954;9.474;2022-09-24T01:40:15;10.97;;;9.83;;
846;SDS011;410;48.954;9.474;2022-09-24T01:42:20;11.03;;;9.97;;
846;SDS011;410;48.954;9.474;2022-09-24T01:44:23;10.33;;;9.17;;
846;SDS011;410;48.954;9.474;2022-09-24T01:46:28;11.70;;;10.30;;
846;SDS011;410;48.954;9.474;2022-09-24T01:48:33;10.23;;;9.33;;
846;SDS011;410;48.954;9.474;2022-09-24T01:50:39;10.90;;;9.80;;
846;SDS011;410;48.954;9.474;2022-09-24T01:52:47;10.20;;;9.30;;
846;SDS011;410;48.954;9.474;2022-09-24T01:54:53;12.63;;;10.10;;
846;SDS011;410;48.954;9.474;2022-09-24T01:56:58;13.67;;;9.33;;
846;SDS011;410;48.954;9.474;2022-09-24T01:59:05;10.70;;;9.60;;
846;SDS011;410;48.954;9.474;2022-09-24T02:01:14;12.17;;;9.40;;
846;SDS011;410;48.954;9.474;2022-09-24T02:03:21;10.97;;;9.87;;
846;SDS011;410;48.954;9.474;2022-09-24T02:05:30;10.30;;;8.87;;
846;SDS011;410;48.954;9.474;2022-09-24T02:07:35;11.17;;;9.57;;
846;SDS011;410;48.954;9.474;2022-09-24T02:09:41;10.50;;;9.37;;
846;SDS011;410;48.954;9.474;2022-09-24T02:11:45;10.97;;;9.87;;
846;SDS011;410;48.954;9.474;2022-09-24T02:13:52;10.00;;;9.00;;
846;SDS011;410;48.954;9.474;2022-09-24T02:15:58;13.77;;;10.00;;
846;SDS011;410;48.954;9.474;2022-09-24T02:18:02;11.03;;;9.40;;
846;SDS011;410;48.954;9.474;2022-09-24T02:20:10;11.13;;;9.23;;
846;SDS011;410;48.954;9.474;2022-09-24T02:22:15;10.90;;;9.57;;
846;SDS011;410;48.954;9.474;2022-09-24T02:24:19;11.70;;;9.63;;
846;SDS011;410;48.954;9.474;2022-09-24T02:26:24;11.40;;;10.03;;
846;SDS011;410;48.954;9.474;2022-09-24T02:28:27;10.50;;;9.60;;
846;SDS011;410;48.954;9.474;2022-09-24T02:30:31;11.53;;;9.37;;
846;SDS011;410;48.954;9.474;2022-09-24T02:32:38;11.27;;;9.93;;
846;SDS011;410;48.954;9.474;2022-09-24T02:34:42;11.10;;;10.00;;
846;SDS011;410;48.954;9.474;2022-09-24T02:36:50;10.60;;;9.60;;
846;SDS011;410;48.954;9.474;2022-09-24T02:38:54;11.43;;;10.23;;
846;SDS011;410;48.954;9.474;2022-09-24T02:40:57;10.70;;;9.60;;
846;SDS011;410;48.954;9.474;2022-09-24T02:43:00;10.93;;;8.50;;
846;SDS011;410;48.954;9.474;2022-09-24T02:45:03;11.20;;;9.73;;
846;SDS011;410;48.954;9.474;2022-09-24T02:47:08;12.30;;;9.67;;
846;SDS011;410;48.954;9.474;2022-09-24T02:49:11;13.20;;;10.63;;
846;SDS011;410;48.954;9.474;2022-09-24T02:51:14;11.10;;;10.00;;
846;SDS011;410;48.954;9.474;2022-09-24T02:53:18;10.97;;;9.73;;
846;SDS011;410;48.954;9.474;2022-09-24T02:55:21;13.73;;;9.80;;
846;SDS011;410;48.954;9.474;2022-09-24T02:57:24;9.70;;;8.70;;
846;SDS011;410;48.954;9.474;2022-09-24T02:59:27;10.90;;;9.80;;
846;SDS011;410;48.954;9.474;2022-09-24T03:01:30;11.30;;;9.50;;
846;SDS011;410;48.954;9.474;2022-09-24T03:03:34;11.33;;;10.27;;
846;SDS011;410;48.954;9.474;2022-09-24T03:05:37;10.70;;;9.60;;
846;SDS011;410;48.954;9.474;2022-09-24T03:07:40;12.23;;;9.90;;
846;SDS011;410;48.954;9.474;2022-09-24T03:09:50;12.70;;;10.20;;
846;SDS011;410;48.954;9.474;2022-09-24T03:11:53;11.80;;;9.30;;
846;SDS011;410;48.954;9.474;2022-09-24T03:13:57;13.90;;;9.90;;
846;SDS011;410;48.954;9.474;2022-09-24T03:16:01;11.20;;;9.47;;
846;SDS011;410;48.954;9.474;2022-09-24T03:18:04;10.40;;;9.30;;
846;SDS011;410;48.954;9.474;2022-09-24T03:20:08;11.43;;;9.23;;
846;SDS011;410;48.954;9.474;2022-09-24T03:22:11;11.03;;;9.57;;
846;SDS011;410;48.954;9.474;2022-09-24T03:24:14;10.40;;;9.33;;
846;SDS011;410;48.954;9.474;2022-09-24T03:26:18;10.93;;;9.83;;
846;SDS011;410;48.954;9.474;2022-09-24T03:28:21;11.07;;;9.97;;
846;SDS011;410;48.954;9.474;2022-09-24T03:30:24;11.93;;;10.73;;
846;SDS011;410;48.954;9.474;2022-09-24T03:32:46;10.83;;;9.73;;
846;SDS011;410;48.954;9.474;2022-09-24T03:34:49;13.23;;;10.30;;
846;SDS011;410;48.954;9.474;2022-09-24T03:36:52;12.23;;;9.83;;
846;SDS011;410;48.954;9.474;2022-09-24T03:38:55;12.07;;;9.60;;
846;SDS011;410;48.954;9.474;2022-09-24T03:40:59;12.87;;;10.00;;
846;SDS011;410;48.954;9.474;2022-09-24T03:43:03;11.97;;;9.60;;
846;SDS011;410;48.954;9.474;2022-09-24T03:45:07;10.93;;;9.70;;
846;SDS011;410;48.954;9.474;2022-09-24T03:47:11;10.43;;;9.43;;
846;SDS011;410;48.954;9.474;2022-09-24T03:49:14;11.87;;;9.90;;
846;SDS011;410;48.954;9.474;2022-09-24T03:51:17;11.03;;;9.70;;
846;SDS011;410;48.954;9.474;2022-09-24T03:53:21;15.10;;;10.10;;
846;SDS011;410;48.954;9.474;2022-09-24T03:55:24;10.93;;;9.83;;
846;SDS011;410;48.954;9.474;2022-09-24T03:57:27;12.03;;;9.27;;
846;SDS011;410;48.954;9.474;2022-09-24T03:59:31;9.90;;;8.90;;
846;SDS011;410;48.954;9.474;2022-09-24T04:01:34;12.23;;;9.20;;
846;SDS011;410;48.954;9.474;2022-09-24T04:03:37;10.80;;;9.70;;
846;SDS011;410;48.954;9.474;2022-09-24T04:05:41;9.50;;;8.60;;
846;SDS011;410;48.954;9.474;2022-09-24T04:07:44;11.07;;;9.93;;
846;SDS011;410;48.954;9.474;2022-09-24T04:09:47;10.37;;;9.20;;
846;SDS011;410;48.954;9.474;2022-09-24T04:11:50;9.87;;;8.90;;
846;SDS011;410;48.954;9.474;2022-09-24T04:13:53;10.93;;;9.53;;
846;SDS011;410;48.954;9.474;2022-09-24T04:16:01;9.97;;;8.97;;
846;SDS011;410;48.954;9.474;2022-09-24T04:18:05;10.50;;;9.40;;
846;SDS011;410;48.954;9.474;2022-09-24T04:20:08;9.97;;;8.97;;
846;SDS011;410;48.954;9.474;2022-09-24T04:22:13;11.33;;;9.70;;
846;SDS011;410;48.954;9.474;2022-09-24T04:24:16;10.90;;;9.53;;
846;SDS011;410;48.954;9.474;2022-09-24T04:26:19;10.27;;;9.27;;
846;SDS011;410;48.954;9.474;2022-09-24T04:28:22;10.80;;;9.70;;
846;SDS011;410;48.954;9.474;2022-09-24T04:30:25;10.33;;;9.20;;
846;SDS011;410;48.954;9.474;2022-09-24T04:32:30;10.70;;;9.50;;
846;SDS011;410;48.954;9.474;2022-09-24T04:34:33;10.77;;;9.63;;
846;SDS011;410;48.954;9.474;2022-09-24T04:36:36;10.30;;;9.30;;
846;SDS011;410;48.954;9.474;2022-09-24T04:38:39;12.70;;;9.37;;
846;SDS011;410;48.954;9.474;2022-09-24T04:40:42;12.40;;;9.40;;
846;SDS011;410;48.954;9.474;2022-09-24T04:42:47;9.93;;;8.93;;
846;SDS011;410;48.954;9.474;2022-09-24T04:44:50;11.47;;;10.27;;
846;SDS011;410;48.954;9.474;2022-09-24T04:46:56;12.23;;;10.00;;
846;SDS011;410;48.954;9.474;2022-09-24T04:49:04;10.30;;;9.20;;
846;SDS011;410;48.954;9.474;2022-09-24T04:51:10;11.50;;;10.10;;
846;SDS011;410;48.954;9.474;2022-09-24T04:53:13;11.17;;;9.40;;
846;SDS011;410;48.954;9.474;2022-09-24T04:55:16;10.77;;;9.73;;
846;SDS011;410;48.954;9.474;2022-09-24T04:57:21;10.73;;;9.67;;
846;SDS011;410;48.954;9.474;2022-09-24T04:59:24;10.07;;;9.03;;
846;SDS011;410;48.954;9.474;2022-09-24T05:01:27;12.10;;;10.40;;
846;SDS011;410;48.954;9.474;2022-09-24T05:03:30;11.93;;;10.70;;
846;SDS011;410;48.954;9.474;2022-09-24T05:05:35;10.30;;;9.30;;
846;SDS011;410;48.954;9.474;2022-09-24T05:07:38;10.17;;;9.07;;
846;SDS011;410;48.954;9.474;2022-09-24T05:09:41;11.43;;;10.10;;
846;SDS011;410;48.954;9.474;2022-09-24T05:11:44;10.87;;;9.73;;
846;SDS011;410;48.954;9.474;2022-09-24T05:13:47;10.60;;;9.60;;
846;SDS011;410;48.954;9.474;2022-09-24T05:15:50;10.90;;;9.27;;
846;SDS011;410;48.954;9.474;2022-09-24T05:17:53;14.17;;;10.50;;
846;SDS011;410;48.954;9.474;2022-09-24T05:19:56;11.23;;;9.90;;
846;SDS011;410;48.954;9.474;2022-09-24T05:22:01;11.10;;;9.27;;
846;SDS011;410;48.954;9.474;2022-09-24T05:24:04;11.87;;;10.67;;
846;SDS011;410;48.954;9.474;2022-09-24T05:26:07;14.93;;;10.60;;
846;SDS011;410;48.954;9.474;2022-09-24T05:28:28;15.60;;;11.13;;
846;SDS011;410;48.954;9.474;2022-09-24T05:30:33;11.77;;;9.90;;
846;SDS011;410;48.954;9.474;2022-09-24T05:32:37;13.67;;;10.27;;
846;SDS011;410;48.954;9.474;2022-09-24T05:34:41;16.70;;;10.37;;
846;SDS011;410;48.954;9.474;2022-09-24T05:36:44;26.60;;;11.00;;
846;SDS011;410;48.954;9.474;2022-09-24T05:38:48;24.40;;;11.80;;
846;SDS011;410;48.954;9.474;2022-09-24T05:40:51;16.53;;;9.97;;
846;SDS011;410;48.954;9.474;2022-09-24T05:42:58;18.27;;;10.53;;
846;SDS011;410;48.954;9.474;2022-09-24T05:45:01;15.33;;;10.57;;
846;SDS011;410;48.954;9.474;2022-09-24T05:47:05;11.53;;;10.33;;
846;SDS011;410;48.954;9.474;2022-09-24T05:49:08;11.57;;;10.37;;
846;SDS011;410;48.954;9.474;2022-09-24T05:51:11;12.10;;;10.90;;
846;SDS011;410;48.954;9.474;2022-09-24T05:53:14;12.30;;;10.77;;
846;SDS011;410;48.954;9.474;2022-09-24T05:55:18;11.60;;;9.90;;
846;SDS011;410;48.954;9.474;2022-09-24T05:57:21;10.17;;;9.20;;
846;SDS011;410;48.954;9.474;2022-09-24T05:59:25;11.00;;;9.90;;
846;SDS011;410;48.954;9.474;2022-09-24T06:01:28;11.10;;;9.23;;
846;SDS011;410;48.954;9.474;2022-09-24T06:03:31;14.67;;;10.30;;
846;SDS011;410;48.954;9.474;2022-09-24T06:05:34;10.47;;;9.43;;
846;SDS011;410;48.954;9.474;2022-09-24T06:07:37;11.17;;;9.97;;
846;SDS011;410;48.954;9.474;2022-09-24T06:09:41;12.40;;;9.80;;
846;SDS011;410;48.954;9.474;2022-09-24T06:11:46;11.60;;;9.50;;
846;SDS011;410;48.954;9.474;2022-09-24T06:13:50;10.57;;;9.57;;
846;SDS011;410;48.954;9.474;2022-09-24T06:15:58;11.30;;;10.03;;
846;SDS011;410;48.954;9.474;2022-09-24T06:18:02;11.17;;;9.83;;
846;SDS011;410;48.954;9.474;2022-09-24T06:20:14;14.40;;;10.23;;
846;SDS011;410;48.954;9.474;2022-09-24T06:22:17;13.23;;;9.63;;
846;SDS011;410;48.954;9.474;2022-09-24T06:24:24;11.40;;;10.30;;
846;SDS011;410;48.954;9.474;2022-09-24T06:26:27;11.90;;;9.70;;
846;SDS011;410;48.954;9.474;2022-09-24T06:28:31;11.43;;;9.73;;
846;SDS011;410;48.954;9.474;2022-09-24T06:30:35;12.40;;;10.87;;
846;SDS011;410;48.954;9.474;2022-09-24T06:32:39;17.73;;;10.87;;
846;SDS011;410;48.954;9.474;2022-09-24T06:34:42;13.67;;;10.83;;
846;SDS011;410;48.954;9.474;2022-09-24T06:36:45;15.33;;;11.70;;
846;SDS011;410;48.954;9.474;2022-09-24T06:38:49;17.20;;;12.30;;
846;SDS011;410;48.954;9.474;2022-09-24T06:40:56;29.00;;;16.93;;
846;SDS011;410;48.954;9.474;2022-09-24T06:43:00;25.57;;;15.93;;
846;SDS011;410;48.954;9.474;2022-09-24T06:45:05;20.70;;;13.70;;
846;SDS011;410;48.954;9.474;2022-09-24T06:47:09;18.37;;;12.50;;
846;SDS011;410;48.954;9.474;2022-09-24T06:49:13;15.20;;;12.27;;
846;SDS011;410;48.954;9.474;2022-09-24T06:51:16;24.60;;;14.57;;
846;SDS011;410;48.954;9.474;2022-09-24T06:53:19;15.03;;;11.57;;
846;SDS011;410;48.954;9.474;2022-09-24T06:55:22;12.27;;;10.97;;
846;SDS011;410;48.954;9.474;2022-09-24T06:57:25;18.33;;;10.47;;
846;SDS011;410;48.954;9.474;2022-09-24T06:59:29;14.00;;;10.60;;
846;SDS011;410;48.954;9.474;2022-09-24T07:01:33;11.40;;;10.30;;
846;SDS011;410;48.954;9.474;2022-09-24T07:03:37;11.57;;;10.53;;
846;SDS011;410;48.954;9.474;2022-09-24T07:05:40;11.23;;;10.13;;
846;SDS011;410;48.954;9.474;2022-09-24T07:07:44;15.47;;;10.17;;
846;SDS011;410;48.954;9.474;2022-09-24T07:09:47;14.83;;;10.03;;
846;SDS011;410;48.954;9.474;2022-09-24T07:11:50;11.23;;;10.13;;
846;SDS011;410;48.954;9.474;2022-09-24T07:13:53;10.90;;;9.80;;
846;SDS011;410;48.954;9.474;2022-09-24T07:15:56;12.27;;;10.97;;
846;SDS011;410;48.954;9.474;2022-09-24T07:18:03;12.03;;;10.83;;
846;SDS011;410;48.954;9.474;2022-09-24T07:20:06;14.17;;;12.43;;
846;SDS011;410;48.954;9.474;2022-09-24T07:22:10;13.47;;;11.50;;
846;SDS011;410;48.954;9.474;2022-09-24T07:24:13;12.23;;;10.90;;
846;SDS011;410;48.954;9.474;2022-09-24T07:26:16;10.77;;;9.63;;
846;SDS011;410;48.954;9.474;2022-09-24T07:28:19;14.17;;;12.53;;
846;SDS011;410;48.954;9.474;2022-09-24T07:30:24;13.80;;;12.40;;
846;SDS011;410;48.954;9.474;2022-09-24T07:32:27;16.83;;;15.13;;
846;SDS011;410;48.954;9.474;2022-09-24T07:34:32;34.70;;;31.00;;
846;SDS011;410;48.954;9.474;2022-09-24T07:36:35;22.13;;;19.67;;
846;SDS011;410;48.954;9.474;2022-09-24T07:38:38;21.53;;;19.40;;
846;SDS011;410;48.954;9.474;2022-09-24T07:40:41;14.73;;;13.23;;
846;SDS011;410;48.954;9.474;2022-09-24T07:42:45;11.23;;;10.13;;
846;SDS011;410;48.954;9.474;2022-09-24T07:44:48;11.53;;;10.40;;
846;SDS011;410;48.954;9.474;2022-09-24T07:46:51;12.40;;;11.10;;
846;SDS011;410;48.954;9.474;2022-09-24T07:48:54;12.90;;;11.60;;
846;SDS011;410;48.954;9.474;2022-09-24T07:50:59;12.60;;;11.30;;
846;SDS011;410;48.954;9.474;2022-09-24T07:53:02;12.30;;;11.20;;
846;SDS011;410;48.954;9.474;2022-09-24T07:55:05;12.40;;;11.17;;
846;SDS011;410;48.954;9.474;2022-09-24T07:57:09;13.57;;;11.50;;
846;SDS011;410;48.954;9.474;2022-09-24T07:59:14;13.57;;;11.93;;
846;SDS011;410;48.954;9.474;2022-09-24T08:01:17;12.23;;;11.03;;
846;SDS011;410;48.954;9.474;2022-09-24T08:03:20;12.47;;;11.27;;
846;SDS011;410;48.954;9.474;2022-09-24T08:05:24;11.63;;;10.53;;
846;SDS011;410;48.954;9.474;2022-09-24T08:07:28;13.57;;;11.03;;
846;SDS011;410;48.954;9.474;2022-09-24T08:09:31;13.37;;;12.07;;
846;SDS011;410;48.954;9.474;2022-09-24T08:11:34;12.70;;;11.40;;
846;SDS011;410;48.954;9.474;2022-09-24T08:13:37;13.17;;;11.83;;
846;SDS011;410;48.954;9.474;2022-09-24T08:15:40;13.93;;;12.43;;
846;SDS011;410;48.954;9.474;2022-09-24T08:17:43;13.40;;;12.03;;
846;SDS011;410;48.954;9.474;2022-09-24T08:19:46;14.87;;;12.40;;
846;SDS011;410;48.954;9.474;2022-09-24T08:21:49;12.40;;;11.20;;
846;SDS011;410;48.954;9.474;2022-09-24T08:23:55;13.63;;;12.33;;
846;SDS011;410;48.954;9.474;2022-09-24T08:25:58;13.13;;;11.90;;
846;SDS011;410;48.954;9.474;2022-09-24T08:28:02;13.63;;;12.30;;
846;SDS011;410;48.954;9.474;2022-09-24T08:30:06;13.33;;;12.00;;
846;SDS011;410;48.954;9.474;2022-09-24T08:32:09;14.57;;;11.43;;
846;SDS011;410;48.954;9.474;2022-09-24T08:34:13;14.83;;;12.20;;
846;SDS011;410;48.954;9.474;2022-09-24T08:36:16;13.50;;;12.10;;
846;SDS011;410;48.954;9.474;2022-09-24T08:38:19;14.13;;;12.63;;
846;SDS011;410;48.954;9.474;2022-09-24T08:40:25;13.33;;;12.00;;
846;SDS011;410;48.954;9.474;2022-09-24T08:42:33;14.60;;;12.83;;
846;SDS011;410;48.954;9.474;2022-09-24T08:44:39;16.50;;;14.70;;
846;SDS011;410;48.954;9.474;2022-09-24T08:47:01;15.93;;;14.27;;
846;SDS011;410;48.954;9.474;2022-09-24T08:49:23;15.73;;;13.67;;
846;SDS011;410;48.954;9.474;2022-09-24T08:51:29;16.70;;;15.00;;
846;SDS011;410;48.954;9.474;2022-09-24T08:53:40;17.50;;;15.20;;
846;SDS011;410;48.954;9.474;2022-09-24T08:55:48;18.17;;;16.30;;
846;SDS011;410;48.954;9.474;2022-09-24T08:57:54;19.70;;;15.90;;
846;SDS011;410;48.954;9.474;2022-09-24T09:00:01;17.53;;;15.67;;
846;SDS011;410;48.954;9.474;2022-09-24T09:02:12;16.60;;;14.23;;
846;SDS011;410;48.954;9.474;2022-09-24T09:04:23;15.10;;;13.60;;
846;SDS011;410;48.954;9.474;2022-09-24T09:08:55;15.57;;;13.73;;
846;SDS011;410;48.954;9.474;2022-09-24T09:11:19;16.47;;;14.77;;
846;SDS011;410;48.954;9.474;2022-09-24T09:13:25;17.97;;;14.60;;
846;SDS011;410;48.954;9.474;2022-09-24T09:15:30;15.13;;;13.60;;
846;SDS011;410;48.954;9.474;2022-09-24T09:17:37;14.87;;;13.37;;
846;SDS011;410;48.954;9.474;2022-09-24T09:19:46;15.70;;;14.13;;
846;SDS011;410;48.954;9.474;2022-09-24T09:21:55;16.03;;;14.30;;
846;SDS011;410;48.954;9.474;2022-09-24T09:23:59;17.50;;;14.90;;
846;SDS011;410;48.954;9.474;2022-09-24T09:26:03;16.93;;;15.27;;
846;SDS011;410;48.954;9.474;2022-09-24T09:28:10;16.07;;;14.40;;
846;SDS011;410;48.954;9.474;2022-09-24T09:30:16;15.93;;;14.37;;
846;SDS011;410;48.954;9.474;2022-09-24T09:32:23;17.27;;;14.70;;
846;SDS011;410;48.954;9.474;2022-09-24T09:34:44;16.80;;;15.20;;
846;SDS011;410;48.954;9.474;2022-09-24T09:36:55;16.50;;;14.80;;
846;SDS011;410;48.954;9.474;2022-09-24T09:39:08;15.67;;;14.07;;
846;SDS011;410;48.954;9.474;2022-09-24T09:41:22;16.50;;;14.90;;
846;SDS011;410;48.954;9.474;2022-09-24T09:43:32;17.53;;;15.60;;
846;SDS011;410;48.954;9.474;2022-09-24T09:45:36;17.43;;;15.40;;
846;SDS011;410;48.954;9.474;2022-09-24T09:47:44;16.13;;;14.43;;
846;SDS011;410;48.954;9.474;2022-09-24T09:49:49;18.00;;;16.20;;
846;SDS011;410;48.954;9.474;2022-09-24T09:51:54;20.23;;;15.70;;
846;SDS011;410;48.954;9.474;2022-09-24T09:53:58;17.23;;;15.30;;
846;SDS011;410;48.954;9.474;2022-09-24T09:56:03;18.27;;;16.57;;
846;SDS011;410;48.954;9.474;2022-09-24T09:58:15;17.40;;;15.53;;
846;SDS011;410;48.954;9.474;2022-09-24T10:00:25;17.30;;;15.60;;
846;SDS011;410;48.954;9.474;2022-09-24T10:02:29;17.50;;;15.70;;
846;SDS011;410;48.954;9.474;2022-09-24T10:04:35;17.83;;;16.03;;
846;SDS011;410;48.954;9.474;2022-09-24T10:06:40;17.47;;;15.73;;
846;SDS011;410;48.954;9.474;2022-09-24T10:08:43;15.33;;;13.83;;
846;SDS011;410;48.954;9.474;2022-09-24T10:10:51;15.87;;;13.97;;
846;SDS011;410;48.954;9.474;2022-09-24T10:13:05;15.53;;;13.93;;
846;SDS011;410;48.954;9.474;2022-09-24T10:15:15;15.50;;;13.93;;
846;SDS011;410;48.954;9.474;2022-09-24T10:17:21;16.10;;;14.10;;
846;SDS011;410;48.954;9.474;2022-09-24T10:19:26;14.00;;;12.57;;
846;SDS011;410;48.954;9.474;2022-09-24T10:21:30;15.37;;;13.13;;
846;SDS011;410;48.954;9.474;2022-09-24T10:23:35;16.37;;;14.47;;
846;SDS011;410;48.954;9.474;2022-09-24T10:25:39;15.37;;;13.90;;
846;SDS011;410;48.954;9.474;2022-09-24T10:27:42;17.30;;;15.50;;
846;SDS011;410;48.954;9.474;2022-09-24T10:29:45;17.13;;;15.47;;
846;SDS011;410;48.954;9.474;2022-09-24T10:32:12;20.57;;;15.70;;
846;SDS011;410;48.954;9.474;2022-09-24T10:34:19;17.33;;;15.53;;
846;SDS011;410;48.954;9.474;2022-09-24T10:36:24;18.03;;;15.63;;
846;SDS011;410;48.954;9.474;2022-09-24T10:38:28;18.50;;;16.70;;
846;SDS011;410;48.954;9.474;2022-09-24T10:40:37;17.60;;;15.77;;
846;SDS011;410;48.954;9.474;2022-09-24T10:42:41;21.03;;;16.30;;
846;SDS011;410;48.954;9.474;2022-09-24T10:44:44;19.27;;;16.00;;
846;SDS011;410;48.954;9.474;2022-09-24T10:46:59;16.40;;;14.80;;
846;SDS011;410;48.954;9.474;2022-09-24T10:49:11;17.33;;;15.53;;
846;SDS011;410;48.954;9.474;2022-09-24T10:51:25;16.27;;;14.57;;
846;SDS011;410;48.954;9.474;2022-09-24T10:53:34;16.90;;;15.23;;
846;SDS011;410;48.954;9.474;2022-09-24T10:55:47;16.23;;;14.60;;
846;SDS011;410;48.954;9.474;2022-09-24T10:58:00;15.60;;;14.07;;
846;SDS011;410;48.954;9.474;2022-09-24T11:00:07;16.73;;;14.93;;
846;SDS011;410;48.954;9.474;2022-09-24T11:02:19;18.43;;;16.53;;
846;SDS011;410;48.954;9.474;2022-09-24T11:04:45;16.67;;;14.80;;
846;SDS011;410;48.954;9.474;2022-09-24T11:07:02;17.60;;;15.90;;
846;SDS011;410;48.954;9.474;2022-09-24T11:09:21;16.60;;;15.00;;
846;SDS011;410;48.954;9.474;2022-09-24T11:11:31;16.83;;;15.13;;
846;SDS011;410;48.954;9.474;2022-09-24T11:13:43;15.50;;;14.00;;
846;SDS011;410;48.954;9.474;2022-09-24T11:15:59;13.97;;;12.50;;
846;SDS011;410;48.954;9.474;2022-09-24T11:18:24;17.40;;;14.40;;
846;SDS011;410;48.954;9.474;2022-09-24T11:20:34;14.53;;;13.13;;
846;SDS011;410;48.954;9.474;2022-09-24T11:22:42;15.10;;;12.13;;
846;SDS011;410;48.954;9.474;2022-09-24T11:25:00;13.80;;;12.40;;
846;SDS011;410;48.954;9.474;2022-09-24T11:27:18;15.47;;;13.80;;
846;SDS011;410;48.954;9.474;2022-09-24T11:29:51;15.67;;;14.00;;
846;SDS011;410;48.954;9.474;2022-09-24T11:32:03;13.70;;;12.37;;
846;SDS011;410;48.954;9.474;2022-09-24T11:36:43;16.77;;;13.50;;
846;SDS011;410;48.954;9.474;2022-09-24T11:39:06;16.40;;;12.80;;
846;SDS011;410;48.954;9.474;2022-09-24T11:41:27;12.53;;;11.10;;
846;SDS011;410;48.954;9.474;2022-09-24T11:46:26;14.87;;;12.50;;
846;SDS011;410;48.954;9.474;2022-09-24T11:48:42;14.70;;;12.77;;
846;SDS011;410;48.954;9.474;2022-09-24T11:50:59;15.07;;;13.00;;
846;SDS011;410;48.954;9.474;2022-09-24T11:53:07;14.03;;;12.50;;
846;SDS011;410;48.954;9.474;2022-09-24T11:55:17;14.63;;;13.13;;
846;SDS011;410;48.954;9.474;2022-09-24T11:57:22;15.27;;;12.97;;
846;SDS011;410;48.954;9.474;2022-09-24T11:59:30;14.10;;;12.60;;
846;SDS011;410;48.954;9.474;2022-09-24T12:01:39;15.10;;;12.70;;
846;SDS011;410;48.954;9.474;2022-09-24T12:03:50;14.43;;;13.00;;
846;SDS011;410;48.954;9.474;2022-09-24T12:05:59;14.53;;;13.10;;
846;SDS011;410;48.954;9.474;2022-09-24T12:08:07;15.70;;;14.03;;
846;SDS011;410;48.954;9.474;2022-09-24T12:10:23;16.17;;;14.57;;
846;SDS011;410;48.954;9.474;2022-09-24T12:12:31;14.73;;;13.33;;
846;SDS011;410;48.954;9.474;2022-09-24T12:14:40;15.13;;;13.70;;
846;SDS011;410;48.954;9.474;2022-09-24T12:16:47;15.67;;;14.10;;
846;SDS011;410;48.954;9.474;2022-09-24T12:18:53;15.40;;;13.80;;
846;SDS011;410;48.954;9.474;2022-09-24T12:20:57;15.73;;;13.80;;
846;SDS011;410;48.954;9.474;2022-09-24T12:23:03;14.90;;;13.40;;
846;SDS011;410;48.954;9.474;2022-09-24T12:25:09;16.93;;;15.13;;
846;SDS011;410;48.954;9.474;2022-09-24T12:27:15;18.50;;;14.83;;
846;SDS011;410;48.954;9.474;2022-09-24T12:29:29;16.40;;;14.73;;
846;SDS011;410;48.954;9.474;2022-09-24T12:31:57;15.30;;;13.90;;
846;SDS011;410;48.954;9.474;2022-09-24T12:34:24;15.30;;;13.50;;
846;SDS011;410;48.954;9.474;2022-09-24T12:36:40;15.27;;;13.70;;
846;SDS011;410;48.954;9.474;2022-09-24T12:39:00;18.63;;;14.23;;
846;SDS011;410;48.954;9.474;2022-09-24T12:41:16;15.00;;;13.50;;
846;SDS011;410;48.954;9.474;2022-09-24T12:43:24;16.30;;;14.40;;
846;SDS011;410;48.954;9.474;2022-09-24T12:45:32;16.53;;;14.50;;
846;SDS011;410;48.954;9.474;2022-09-24T12:47:36;17.73;;;15.93;;
846;SDS011;410;48.954;9.474;2022-09-24T12:49:48;19.90;;;15.57;;
846;SDS011;410;48.954;9.474;2022-09-24T12:51:54;16.97;;;15.17;;
846;SDS011;410;48.954;9.474;2022-09-24T12:53:58;16.37;;;14.70;;
846;SDS011;410;48.954;9.474;2022-09-24T12:56:08;15.97;;;14.37;;
846;SDS011;410;48.954;9.474;2022-09-24T12:58:24;15.70;;;14.20;;
846;SDS011;410;48.954;9.474;2022-09-24T13:00:33;16.27;;;13.57;;
846;SDS011;410;48.954;9.474;2022-09-24T13:02:42;17.10;;;14.13;;
846;SDS011;410;48.954;9.474;2022-09-24T13:04:48;16.90;;;13.30;;
846;SDS011;410;48.954;9.474;2022-09-24T13:06:53;16.23;;;14.53;;
846;SDS011;410;48.954;9.474;2022-09-24T13:08:56;17.73;;;15.93;;
846;SDS011;410;48.954;9.474;2022-09-24T13:11:00;18.17;;;15.80;;
846;SDS011;410;48.954;9.474;2022-09-24T13:13:14;17.07;;;15.37;;
846;SDS011;410;48.954;9.474;2022-09-24T13:15:25;17.97;;;16.17;;
846;SDS011;410;48.954;9.474;2022-09-24T13:17:32;19.20;;;16.50;;
846;SDS011;410;48.954;9.474;2022-09-24T13:19:39;19.33;;;17.47;;
846;SDS011;410;48.954;9.474;2022-09-24T13:21:51;19.63;;;17.63;;